EGPB/LSI METAR and TAF weather

Enter ICAO airport designator
Station Type Date Time Source
EGPB METAR 2020/09/20 14:50 UTC NOAA

EGPB 201450Z 25013KT 9999 FEW008 BKN010 12/11 Q1020 NOSIG


Station Type Date Time Source
EGPB Decoded METAR 2020/09/20 14:50 UTC NOAA

Sumburgh Cape , United Kingdom (EGPB) 59-53N 001-18W
Sep 20, 2020 - 10:50 AM EDT / 2020.09.20 1450 UTC
Wind: from the WSW (250 degrees) at 15 MPH (13 KT):0
Visibility: greater than 7 mile(s):0
Sky conditions: mostly cloudy
Temperature: 53 F (12 C)
Dew Point: 51 F (11 C)
Relative Humidity: 93%
Pressure (altimeter): 30.12 in. Hg (1020 hPa)
ob: EGPB 201450Z 25013KT 9999 FEW008 BKN010 12/11 Q1020 NOSIG
cycle: 15

Station Type Date Time Source
EGPB TAF UTC NOAA

Error!

Example: see airport list